createdAt,value
2019-01-05T17:25:50.422Z,58.58
2019-01-05T17:28:20.483Z,56.75
2019-01-05T17:30:56.320Z,56.04
2019-01-05T17:33:26.381Z,55.12
2019-01-05T17:36:02.324Z,54.45
2019-01-05T17:38:44.168Z,54.17
2019-01-05T17:41:29.145Z,54.37
2019-01-05T17:44:05.078Z,54.73
2019-01-05T17:46:35.173Z,54.73
2019-01-05T17:49:05.235Z,55.94
2019-01-05T17:51:35.322Z,57.43
2019-01-05T17:54:08.439Z,57.25
2019-01-05T17:56:41.455Z,56.26
2019-01-05T17:59:20.279Z,56.89
2019-01-05T18:01:50.381Z,57.46
2019-01-05T18:04:38.698Z,57.14
2019-01-05T18:07:14.692Z,56.22
2019-01-05T18:09:59.672Z,56.98
2019-01-05T18:12:32.484Z,55.52
2019-01-05T18:15:05.303Z,55.53
2019-01-05T18:17:38.086Z,54.38
2019-01-05T18:20:24.273Z,54.10
2019-01-05T18:23:10.260Z,54.37
2019-01-05T18:25:40.363Z,57.36
2019-01-05T18:28:10.426Z,61.67
2019-01-05T18:30:56.492Z,58.24
2019-01-05T18:33:26.540Z,56.73
2019-01-05T18:36:05.749Z,57.09
2019-01-05T18:38:38.498Z,57.48
2019-01-05T18:41:11.332Z,57.43
2019-01-05T18:43:59.013Z,56.75
2019-01-05T18:46:29.103Z,56.84
2019-01-05T18:49:07.792Z,56.25
2019-01-05T18:51:37.889Z,56.64
2019-01-05T18:54:19.469Z,56.03
2019-01-05T18:57:01.503Z,55.11
2019-01-05T18:59:34.286Z,55.48
2019-01-05T19:02:20.807Z,56.46
2019-01-05T19:05:06.083Z,56.22
2019-01-05T19:07:48.203Z,56.87
2019-01-05T19:10:34.145Z,57.79
2019-01-05T19:13:07.237Z,56.84
2019-01-05T19:15:40.185Z,55.48
2019-01-05T19:18:19.353Z,55.01
2019-01-05T19:20:55.376Z,54.71
2019-01-05T19:23:34.329Z,54.63
2019-01-05T19:26:13.224Z,53.64
2019-01-05T19:28:59.203Z,54.35
2019-01-05T19:31:29.291Z,54.14
2019-01-05T19:34:11.410Z,54.95
2019-01-05T19:36:44.019Z,53.31
2019-01-05T19:39:20.087Z,53.75
2019-01-05T19:42:08.810Z,53.31
2019-01-05T19:44:38.908Z,53.26
2019-01-05T19:47:11.473Z,53.12
2019-01-05T19:49:44.289Z,52.71
2019-01-05T19:52:25.988Z,52.59
2019-01-05T19:55:08.381Z,52.60
2019-01-05T19:57:47.408Z,52.40
2019-01-05T20:00:17.517Z,53.21
2019-01-05T20:03:03.860Z,53.38
2019-01-05T20:05:43.126Z,53.58
2019-01-05T20:08:28.337Z,54.58
2019-01-05T20:11:04.031Z,54.88
2019-01-05T20:13:50.293Z,55.09
2019-01-05T20:16:27.738Z,55.66
2019-01-05T20:19:00.494Z,55.85
2019-01-05T20:21:30.559Z,54.66
2019-01-05T20:24:09.530Z,54.64
2019-01-05T20:26:51.521Z,54.96
2019-01-05T20:29:30.622Z,56.08
2019-01-05T20:32:16.851Z,55.21
2019-01-05T20:34:55.109Z,59.29
2019-01-05T20:37:25.171Z,58.53
2019-01-05T20:39:55.252Z,58.98
2019-01-05T20:42:43.511Z,60.97
2019-01-05T20:45:16.383Z,60.30
2019-01-05T20:47:49.536Z,58.22
2019-01-05T20:50:19.600Z,57.12
2019-01-05T20:53:07.551Z,56.65
2019-01-05T20:55:53.723Z,57.34
2019-01-05T20:58:40.488Z,56.80
2019-01-05T21:01:28.629Z,56.99
2019-01-05T21:04:04.706Z,55.93
2019-01-05T21:06:43.590Z,59.85
2019-01-05T21:09:13.688Z,60.49
2019-01-05T21:11:43.755Z,61.56
2019-01-05T21:14:22.899Z,59.41
2019-01-05T21:16:52.959Z,68.07
2019-01-05T21:19:26.027Z,59.36
2019-01-05T21:21:58.873Z,59.81
2019-01-05T21:24:35.037Z,60.04
2019-01-05T21:27:14.251Z,59.24
2019-01-05T21:30:00.350Z,59.48
2019-01-05T21:32:33.147Z,57.86
2019-01-05T21:35:05.926Z,57.87
2019-01-05T21:37:52.238Z,58.65
2019-01-05T21:40:38.627Z,57.93
2019-01-05T21:43:20.543Z,57.46
2019-01-05T21:45:51.845Z,60.85
2019-01-05T21:48:21.953Z,59.89
2019-01-05T21:51:00.863Z,59.43
2019-01-05T21:53:45.864Z,59.50
2019-01-05T21:56:22.303Z,59.40
2019-01-05T21:58:52.356Z,59.70
2019-01-05T22:01:31.276Z,62.03
2019-01-05T22:04:07.118Z,59.27
2019-01-05T22:06:53.121Z,60.10
2019-01-05T22:09:28.918Z,59.66
2019-01-05T22:12:14.139Z,60.93
2019-01-05T22:15:00.242Z,60.54
2019-01-05T22:17:46.594Z,61.04
2019-01-05T22:20:19.146Z,59.52
2019-01-05T22:23:05.457Z,59.39
2019-01-05T22:25:51.502Z,59.89
2019-01-05T22:28:36.719Z,59.00
2019-01-05T22:31:22.598Z,59.27
2019-01-05T22:34:08.717Z,62.05
2019-01-05T22:36:47.973Z,61.51
2019-01-05T22:39:34.315Z,63.00
2019-01-05T22:42:04.369Z,60.60
2019-01-05T22:44:34.426Z,62.42
2019-01-05T22:47:20.324Z,62.40
2019-01-05T22:49:50.323Z,61.42
2019-01-05T22:52:26.418Z,60.24
2019-01-05T22:55:12.404Z,62.38
2019-01-05T22:57:50.996Z,62.18
2019-01-05T23:00:37.887Z,64.94
2019-01-05T23:03:24.803Z,63.05
2019-01-05T23:06:10.715Z,61.12
2019-01-05T23:08:57.085Z,61.54
2019-01-05T23:11:27.141Z,60.53
2019-01-05T23:14:15.285Z,63.87
2019-01-05T23:16:48.171Z,60.82
2019-01-05T23:19:18.254Z,62.75
2019-01-05T23:21:48.288Z,62.82
2019-01-05T23:24:30.165Z,61.66
2019-01-05T23:27:16.071Z,60.15
2019-01-05T23:29:48.933Z,61.63
2019-01-05T23:32:18.850Z,61.92
2019-01-05T23:34:48.956Z,60.29
2019-01-05T23:37:18.948Z,60.25
2019-01-05T23:40:01.011Z,58.88
2019-01-05T23:42:30.927Z,58.95
2019-01-05T23:45:12.759Z,59.50
2019-01-05T23:47:58.999Z,59.08
2019-01-05T23:50:41.071Z,57.67
2019-01-05T23:53:16.560Z,58.72
2019-01-05T23:55:55.196Z,58.68
2019-01-05T23:58:43.438Z,59.36
